sensor_id;sensor_type;location;lat;lon;timestamp;P1;durP1;ratioP1;P2;durP2;ratioP2
20531;SDS011;10424;52.102;8.084;2023-09-07T00:02:18;9.73;;;3.60;;
20531;SDS011;10424;52.102;8.084;2023-09-07T00:04:45;10.02;;;4.00;;
20531;SDS011;10424;52.102;8.084;2023-09-07T00:07:12;6.13;;;3.70;;
20531;SDS011;10424;52.102;8.084;2023-09-07T00:09:40;4.45;;;3.53;;
20531;SDS011;10424;52.102;8.084;2023-09-07T00:12:07;5.10;;;3.85;;
20531;SDS011;10424;52.102;8.084;2023-09-07T00:14:34;8.27;;;4.10;;
20531;SDS011;10424;52.102;8.084;2023-09-07T00:17:03;6.80;;;3.58;;
20531;SDS011;10424;52.102;8.084;2023-09-07T00:19:30;6.90;;;3.80;;
20531;SDS011;10424;52.102;8.084;2023-09-07T00:22:01;7.15;;;3.65;;
20531;SDS011;10424;52.102;8.084;2023-09-07T00:24:29;5.78;;;3.72;;
20531;SDS011;10424;52.102;8.084;2023-09-07T00:26:56;7.20;;;3.97;;
20531;SDS011;10424;52.102;8.084;2023-09-07T00:29:24;5.68;;;3.83;;
20531;SDS011;10424;52.102;8.084;2023-09-07T00:31:51;5.03;;;3.92;;
20531;SDS011;10424;52.102;8.084;2023-09-07T00:34:20;6.72;;;4.00;;
20531;SDS011;10424;52.102;8.084;2023-09-07T00:36:47;6.47;;;3.88;;
20531;SDS011;10424;52.102;8.084;2023-09-07T00:39:15;5.25;;;3.90;;
20531;SDS011;10424;52.102;8.084;2023-09-07T00:41:42;6.80;;;4.30;;
20531;SDS011;10424;52.102;8.084;2023-09-07T00:44:09;7.53;;;4.35;;
20531;SDS011;10424;52.102;8.084;2023-09-07T00:46:37;8.27;;;4.10;;
20531;SDS011;10424;52.102;8.084;2023-09-07T00:49:04;8.55;;;4.00;;
20531;SDS011;10424;52.102;8.084;2023-09-07T00:51:33;5.63;;;3.80;;
20531;SDS011;10424;52.102;8.084;2023-09-07T00:54:01;5.82;;;4.20;;
20531;SDS011;10424;52.102;8.084;2023-09-07T00:56:28;6.22;;;3.88;;
20531;SDS011;10424;52.102;8.084;2023-09-07T00:58:56;7.07;;;4.03;;
20531;SDS011;10424;52.102;8.084;2023-09-07T01:01:25;8.88;;;4.28;;
20531;SDS011;10424;52.102;8.084;2023-09-07T01:03:53;6.40;;;3.80;;
20531;SDS011;10424;52.102;8.084;2023-09-07T01:06:22;6.43;;;4.20;;
20531;SDS011;10424;52.102;8.084;2023-09-07T01:08:54;8.35;;;4.00;;
20531;SDS011;10424;52.102;8.084;2023-09-07T01:11:23;5.78;;;4.25;;
20531;SDS011;10424;52.102;8.084;2023-09-07T01:13:51;8.27;;;4.30;;
20531;SDS011;10424;52.102;8.084;2023-09-07T01:16:20;6.72;;;4.13;;
20531;SDS011;10424;52.102;8.084;2023-09-07T01:18:48;5.32;;;4.00;;
20531;SDS011;10424;52.102;8.084;2023-09-07T01:21:16;9.48;;;4.25;;
20531;SDS011;10424;52.102;8.084;2023-09-07T01:23:46;5.68;;;4.03;;
20531;SDS011;10424;52.102;8.084;2023-09-07T01:26:13;6.53;;;4.45;;
20531;SDS011;10424;52.102;8.084;2023-09-07T01:28:40;7.15;;;4.50;;
20531;SDS011;10424;52.102;8.084;2023-09-07T01:31:08;7.00;;;4.15;;
20531;SDS011;10424;52.102;8.084;2023-09-07T01:33:35;7.43;;;4.38;;
20531;SDS011;10424;52.102;8.084;2023-09-07T01:36:03;7.88;;;4.22;;
20531;SDS011;10424;52.102;8.084;2023-09-07T01:38:31;5.68;;;4.30;;
20531;SDS011;10424;52.102;8.084;2023-09-07T01:40:59;7.32;;;4.57;;
20531;SDS011;10424;52.102;8.084;2023-09-07T01:43:27;12.90;;;4.40;;
20531;SDS011;10424;52.102;8.084;2023-09-07T01:45:55;14.50;;;4.68;;
20531;SDS011;10424;52.102;8.084;2023-09-07T01:48:22;8.95;;;4.50;;
20531;SDS011;10424;52.102;8.084;2023-09-07T01:50:51;6.30;;;4.40;;
20531;SDS011;10424;52.102;8.084;2023-09-07T01:53:19;6.85;;;4.25;;
20531;SDS011;10424;52.102;8.084;2023-09-07T01:55:46;5.60;;;4.13;;
20531;SDS011;10424;52.102;8.084;2023-09-07T01:58:15;7.07;;;4.22;;
20531;SDS011;10424;52.102;8.084;2023-09-07T02:00:42;5.72;;;4.32;;
20531;SDS011;10424;52.102;8.084;2023-09-07T02:03:10;7.13;;;4.10;;
20531;SDS011;10424;52.102;8.084;2023-09-07T02:05:37;7.75;;;4.38;;
20531;SDS011;10424;52.102;8.084;2023-09-07T02:08:04;8.77;;;4.18;;
20531;SDS011;10424;52.102;8.084;2023-09-07T02:10:32;6.97;;;4.40;;
20531;SDS011;10424;52.102;8.084;2023-09-07T02:13:00;5.20;;;4.30;;
20531;SDS011;10424;52.102;8.084;2023-09-07T02:15:28;6.20;;;4.50;;
20531;SDS011;10424;52.102;8.084;2023-09-07T02:17:56;7.53;;;4.32;;
20531;SDS011;10424;52.102;8.084;2023-09-07T02:20:23;12.55;;;4.78;;
20531;SDS011;10424;52.102;8.084;2023-09-07T02:22:50;10.85;;;4.30;;
20531;SDS011;10424;52.102;8.084;2023-09-07T02:25:18;8.77;;;4.50;;
20531;SDS011;10424;52.102;8.084;2023-09-07T02:27:45;11.70;;;4.65;;
20531;SDS011;10424;52.102;8.084;2023-09-07T02:30:12;6.97;;;4.65;;
20531;SDS011;10424;52.102;8.084;2023-09-07T02:32:41;13.07;;;4.50;;
20531;SDS011;10424;52.102;8.084;2023-09-07T02:35:09;16.00;;;4.68;;
20531;SDS011;10424;52.102;8.084;2023-09-07T02:37:36;18.38;;;5.15;;
20531;SDS011;10424;52.102;8.084;2023-09-07T02:40:04;12.73;;;4.30;;
20531;SDS011;10424;52.102;8.084;2023-09-07T02:42:34;9.43;;;4.32;;
20531;SDS011;10424;52.102;8.084;2023-09-07T02:45:02;9.55;;;4.32;;
20531;SDS011;10424;52.102;8.084;2023-09-07T02:47:29;8.90;;;4.28;;
20531;SDS011;10424;52.102;8.084;2023-09-07T02:49:58;10.20;;;4.40;;
20531;SDS011;10424;52.102;8.084;2023-09-07T02:52:25;9.75;;;4.00;;
20531;SDS011;10424;52.102;8.084;2023-09-07T02:54:52;10.68;;;4.60;;
20531;SDS011;10424;52.102;8.084;2023-09-07T02:57:20;8.38;;;3.92;;
20531;SDS011;10424;52.102;8.084;2023-09-07T02:59:47;10.73;;;4.53;;
20531;SDS011;10424;52.102;8.084;2023-09-07T03:02:14;6.90;;;4.40;;
20531;SDS011;10424;52.102;8.084;2023-09-07T03:04:41;8.25;;;3.92;;
20531;SDS011;10424;52.102;8.084;2023-09-07T03:07:10;11.85;;;4.60;;
20531;SDS011;10424;52.102;8.084;2023-09-07T03:09:38;6.05;;;4.40;;
20531;SDS011;10424;52.102;8.084;2023-09-07T03:12:05;8.52;;;4.70;;
20531;SDS011;10424;52.102;8.084;2023-09-07T03:14:33;7.43;;;4.20;;
20531;SDS011;10424;52.102;8.084;2023-09-07T03:17:00;12.50;;;4.53;;
20531;SDS011;10424;52.102;8.084;2023-09-07T03:19:28;6.82;;;4.43;;
20531;SDS011;10424;52.102;8.084;2023-09-07T03:21:56;8.07;;;4.43;;
20531;SDS011;10424;52.102;8.084;2023-09-07T03:24:26;7.20;;;4.70;;
20531;SDS011;10424;52.102;8.084;2023-09-07T03:26:56;18.00;;;5.05;;
20531;SDS011;10424;52.102;8.084;2023-09-07T03:29:24;10.70;;;4.65;;
20531;SDS011;10424;52.102;8.084;2023-09-07T03:31:51;13.02;;;4.30;;
20531;SDS011;10424;52.102;8.084;2023-09-07T03:34:19;12.68;;;4.90;;
20531;SDS011;10424;52.102;8.084;2023-09-07T03:36:46;6.85;;;4.30;;
20531;SDS011;10424;52.102;8.084;2023-09-07T03:39:13;9.15;;;4.32;;
20531;SDS011;10424;52.102;8.084;2023-09-07T03:41:42;12.15;;;4.80;;
20531;SDS011;10424;52.102;8.084;2023-09-07T03:44:09;6.30;;;4.80;;
20531;SDS011;10424;52.102;8.084;2023-09-07T03:46:36;10.50;;;4.50;;
20531;SDS011;10424;52.102;8.084;2023-09-07T03:49:04;7.40;;;4.32;;
20531;SDS011;10424;52.102;8.084;2023-09-07T03:51:31;8.23;;;4.53;;
20531;SDS011;10424;52.102;8.084;2023-09-07T03:53:58;9.00;;;4.95;;
20531;SDS011;10424;52.102;8.084;2023-09-07T03:56:26;11.52;;;4.63;;
20531;SDS011;10424;52.102;8.084;2023-09-07T03:58:54;8.82;;;4.63;;
20531;SDS011;10424;52.102;8.084;2023-09-07T04:01:22;6.97;;;4.50;;
20531;SDS011;10424;52.102;8.084;2023-09-07T04:03:49;7.30;;;5.10;;
20531;SDS011;10424;52.102;8.084;2023-09-07T04:06:19;9.25;;;5.43;;
20531;SDS011;10424;52.102;8.084;2023-09-07T04:08:49;10.13;;;5.10;;
20531;SDS011;10424;52.102;8.084;2023-09-07T04:11:16;8.50;;;5.07;;
20531;SDS011;10424;52.102;8.084;2023-09-07T04:13:43;6.70;;;4.88;;
20531;SDS011;10424;52.102;8.084;2023-09-07T04:16:12;10.05;;;5.07;;
20531;SDS011;10424;52.102;8.084;2023-09-07T04:18:39;9.00;;;5.22;;
20531;SDS011;10424;52.102;8.084;2023-09-07T04:21:08;8.98;;;5.10;;
20531;SDS011;10424;52.102;8.084;2023-09-07T04:23:35;8.68;;;5.15;;
20531;SDS011;10424;52.102;8.084;2023-09-07T04:26:05;12.68;;;5.13;;
20531;SDS011;10424;52.102;8.084;2023-09-07T04:28:32;12.27;;;5.30;;
20531;SDS011;10424;52.102;8.084;2023-09-07T04:31:00;7.15;;;4.82;;
20531;SDS011;10424;52.102;8.084;2023-09-07T04:33:30;12.63;;;5.70;;
20531;SDS011;10424;52.102;8.084;2023-09-07T04:36:05;9.68;;;5.40;;
20531;SDS011;10424;52.102;8.084;2023-09-07T04:38:33;11.90;;;5.80;;
20531;SDS011;10424;52.102;8.084;2023-09-07T04:41:05;13.25;;;5.93;;
20531;SDS011;10424;52.102;8.084;2023-09-07T04:43:32;13.13;;;5.47;;
20531;SDS011;10424;52.102;8.084;2023-09-07T04:45:59;12.60;;;5.65;;
20531;SDS011;10424;52.102;8.084;2023-09-07T04:48:27;17.17;;;6.13;;
20531;SDS011;10424;52.102;8.084;2023-09-07T04:50:58;10.93;;;5.40;;
20531;SDS011;10424;52.102;8.084;2023-09-07T04:53:27;12.65;;;5.45;;
20531;SDS011;10424;52.102;8.084;2023-09-07T04:55:55;15.48;;;5.68;;
20531;SDS011;10424;52.102;8.084;2023-09-07T04:58:23;10.40;;;5.80;;
20531;SDS011;10424;52.102;8.084;2023-09-07T05:00:51;13.20;;;6.05;;
20531;SDS011;10424;52.102;8.084;2023-09-07T05:03:18;12.32;;;5.95;;
20531;SDS011;10424;52.102;8.084;2023-09-07T05:05:50;18.83;;;6.10;;
20531;SDS011;10424;52.102;8.084;2023-09-07T05:08:19;11.50;;;5.22;;
20531;SDS011;10424;52.102;8.084;2023-09-07T05:10:47;13.02;;;5.78;;
20531;SDS011;10424;52.102;8.084;2023-09-07T05:13:15;11.43;;;5.47;;
20531;SDS011;10424;52.102;8.084;2023-09-07T05:15:46;12.73;;;6.00;;
20531;SDS011;10424;52.102;8.084;2023-09-07T05:18:14;12.55;;;5.80;;
20531;SDS011;10424;52.102;8.084;2023-09-07T05:20:41;12.52;;;5.90;;
20531;SDS011;10424;52.102;8.084;2023-09-07T05:23:10;11.10;;;5.50;;
20531;SDS011;10424;52.102;8.084;2023-09-07T05:25:43;11.45;;;5.78;;
20531;SDS011;10424;52.102;8.084;2023-09-07T05:28:12;11.27;;;5.38;;
20531;SDS011;10424;52.102;8.084;2023-09-07T05:30:39;8.63;;;5.25;;
20531;SDS011;10424;52.102;8.084;2023-09-07T05:33:07;7.97;;;5.63;;
20531;SDS011;10424;52.102;8.084;2023-09-07T05:35:34;8.82;;;5.10;;
20531;SDS011;10424;52.102;8.084;2023-09-07T05:38:02;13.48;;;5.10;;
20531;SDS011;10424;52.102;8.084;2023-09-07T05:40:29;7.35;;;5.00;;
20531;SDS011;10424;52.102;8.084;2023-09-07T05:42:58;7.50;;;5.18;;
20531;SDS011;10424;52.102;8.084;2023-09-07T05:45:26;9.10;;;5.15;;
20531;SDS011;10424;52.102;8.084;2023-09-07T05:47:53;8.77;;;5.68;;
20531;SDS011;10424;52.102;8.084;2023-09-07T05:50:20;13.52;;;5.15;;
20531;SDS011;10424;52.102;8.084;2023-09-07T05:52:47;10.43;;;5.60;;
20531;SDS011;10424;52.102;8.084;2023-09-07T05:55:15;13.70;;;5.47;;
20531;SDS011;10424;52.102;8.084;2023-09-07T05:57:42;15.88;;;5.47;;
20531;SDS011;10424;52.102;8.084;2023-09-07T06:00:12;9.50;;;5.13;;
20531;SDS011;10424;52.102;8.084;2023-09-07T06:02:42;12.57;;;5.97;;
20531;SDS011;10424;52.102;8.084;2023-09-07T06:05:09;16.73;;;5.63;;
20531;SDS011;10424;52.102;8.084;2023-09-07T06:07:37;13.27;;;5.70;;
20531;SDS011;10424;52.102;8.084;2023-09-07T06:10:04;11.65;;;5.75;;
20531;SDS011;10424;52.102;8.084;2023-09-07T06:12:32;14.55;;;6.40;;
20531;SDS011;10424;52.102;8.084;2023-09-07T06:14:59;9.98;;;5.50;;
20531;SDS011;10424;52.102;8.084;2023-09-07T06:17:28;8.98;;;5.55;;
20531;SDS011;10424;52.102;8.084;2023-09-07T06:19:55;8.25;;;5.90;;
20531;SDS011;10424;52.102;8.084;2023-09-07T06:22:23;8.18;;;5.80;;
20531;SDS011;10424;52.102;8.084;2023-09-07T06:24:50;7.45;;;5.68;;
20531;SDS011;10424;52.102;8.084;2023-09-07T06:27:17;9.90;;;5.90;;
20531;SDS011;10424;52.102;8.084;2023-09-07T06:29:44;13.05;;;5.95;;
20531;SDS011;10424;52.102;8.084;2023-09-07T06:32:12;9.80;;;5.75;;
20531;SDS011;10424;52.102;8.084;2023-09-07T06:34:41;11.10;;;5.25;;
20531;SDS011;10424;52.102;8.084;2023-09-07T06:37:08;10.27;;;6.03;;
20531;SDS011;10424;52.102;8.084;2023-09-07T06:39:35;10.05;;;5.00;;
20531;SDS011;10424;52.102;8.084;2023-09-07T06:42:03;7.88;;;5.05;;
20531;SDS011;10424;52.102;8.084;2023-09-07T06:44:30;9.80;;;5.20;;
20531;SDS011;10424;52.102;8.084;2023-09-07T06:46:57;10.88;;;4.55;;
20531;SDS011;10424;52.102;8.084;2023-09-07T06:49:25;6.78;;;4.78;;
20531;SDS011;10424;52.102;8.084;2023-09-07T06:51:56;7.43;;;4.65;;
20531;SDS011;10424;52.102;8.084;2023-09-07T06:54:23;8.02;;;4.70;;
20531;SDS011;10424;52.102;8.084;2023-09-07T06:56:50;9.30;;;4.72;;
20531;SDS011;10424;52.102;8.084;2023-09-07T06:59:17;5.72;;;4.47;;
20531;SDS011;10424;52.102;8.084;2023-09-07T07:01:45;5.90;;;4.40;;
20531;SDS011;10424;52.102;8.084;2023-09-07T07:04:12;9.15;;;4.40;;
20531;SDS011;10424;52.102;8.084;2023-09-07T07:06:39;5.63;;;4.15;;
20531;SDS011;10424;52.102;8.084;2023-09-07T07:09:08;6.95;;;4.65;;
20531;SDS011;10424;52.102;8.084;2023-09-07T07:11:36;7.90;;;4.55;;
20531;SDS011;10424;52.102;8.084;2023-09-07T07:14:04;5.72;;;4.30;;
20531;SDS011;10424;52.102;8.084;2023-09-07T07:16:31;6.38;;;4.22;;
20531;SDS011;10424;52.102;8.084;2023-09-07T07:18:58;4.85;;;4.32;;
20531;SDS011;10424;52.102;8.084;2023-09-07T07:21:26;8.27;;;4.15;;
20531;SDS011;10424;52.102;8.084;2023-09-07T07:23:53;9.02;;;4.35;;
20531;SDS011;10424;52.102;8.084;2023-09-07T07:26:22;7.38;;;3.92;;
20531;SDS011;10424;52.102;8.084;2023-09-07T07:28:49;5.38;;;4.22;;
20531;SDS011;10424;52.102;8.084;2023-09-07T07:31:16;6.60;;;4.22;;
20531;SDS011;10424;52.102;8.084;2023-09-07T07:33:43;9.15;;;4.00;;
20531;SDS011;10424;52.102;8.084;2023-09-07T07:36:11;7.97;;;4.25;;
20531;SDS011;10424;52.102;8.084;2023-09-07T07:38:38;12.70;;;4.43;;
20531;SDS011;10424;52.102;8.084;2023-09-07T07:41:05;6.57;;;3.97;;
20531;SDS011;10424;52.102;8.084;2023-09-07T07:43:34;7.00;;;4.15;;
20531;SDS011;10424;52.102;8.084;2023-09-07T07:46:01;10.43;;;3.75;;
20531;SDS011;10424;52.102;8.084;2023-09-07T07:48:29;10.02;;;3.83;;
20531;SDS011;10424;52.102;8.084;2023-09-07T07:50:56;6.03;;;3.80;;
20531;SDS011;10424;52.102;8.084;2023-09-07T07:53:23;8.93;;;3.80;;
20531;SDS011;10424;52.102;8.084;2023-09-07T07:55:50;5.82;;;3.88;;
20531;SDS011;10424;52.102;8.084;2023-09-07T07:58:18;9.10;;;4.07;;
20531;SDS011;10424;52.102;8.084;2023-09-07T08:00:47;5.90;;;3.55;;
20531;SDS011;10424;52.102;8.084;2023-09-07T08:03:14;6.55;;;3.75;;
20531;SDS011;10424;52.102;8.084;2023-09-07T08:05:42;6.22;;;3.60;;
20531;SDS011;10424;52.102;8.084;2023-09-07T08:08:10;8.43;;;3.70;;
20531;SDS011;10424;52.102;8.084;2023-09-07T08:10:38;6.43;;;3.80;;
20531;SDS011;10424;52.102;8.084;2023-09-07T08:13:06;5.95;;;3.67;;
20531;SDS011;10424;52.102;8.084;2023-09-07T08:15:34;7.35;;;3.78;;
20531;SDS011;10424;52.102;8.084;2023-09-07T08:18:03;7.15;;;3.75;;
20531;SDS011;10424;52.102;8.084;2023-09-07T08:20:31;7.60;;;3.65;;
20531;SDS011;10424;52.102;8.084;2023-09-07T08:22:59;6.18;;;3.45;;
20531;SDS011;10424;52.102;8.084;2023-09-07T08:25:28;5.13;;;3.50;;
20531;SDS011;10424;52.102;8.084;2023-09-07T08:27:56;6.47;;;3.53;;
20531;SDS011;10424;52.102;8.084;2023-09-07T08:30:24;5.18;;;3.65;;
20531;SDS011;10424;52.102;8.084;2023-09-07T08:32:52;8.98;;;3.60;;
20531;SDS011;10424;52.102;8.084;2023-09-07T08:35:21;10.65;;;3.63;;
20531;SDS011;10424;52.102;8.084;2023-09-07T08:37:52;7.63;;;3.30;;
20531;SDS011;10424;52.102;8.084;2023-09-07T08:40:19;5.10;;;3.33;;
20531;SDS011;10424;52.102;8.084;2023-09-07T08:42:47;7.10;;;3.40;;
20531;SDS011;10424;52.102;8.084;2023-09-07T08:45:14;5.68;;;3.40;;
20531;SDS011;10424;52.102;8.084;2023-09-07T08:47:45;8.38;;;3.45;;
20531;SDS011;10424;52.102;8.084;2023-09-07T08:50:13;7.53;;;3.30;;
20531;SDS011;10424;52.102;8.084;2023-09-07T08:52:43;7.65;;;3.33;;
20531;SDS011;10424;52.102;8.084;2023-09-07T08:55:11;6.70;;;3.35;;
20531;SDS011;10424;52.102;8.084;2023-09-07T08:57:39;6.15;;;3.33;;
20531;SDS011;10424;52.102;8.084;2023-09-07T09:00:07;6.20;;;3.30;;
20531;SDS011;10424;52.102;8.084;2023-09-07T09:02:41;3.83;;;3.15;;
20531;SDS011;10424;52.102;8.084;2023-09-07T09:05:08;10.82;;;3.50;;
20531;SDS011;10424;52.102;8.084;2023-09-07T09:07:36;10.65;;;3.40;;
20531;SDS011;10424;52.102;8.084;2023-09-07T09:10:06;6.70;;;3.22;;
20531;SDS011;10424;52.102;8.084;2023-09-07T09:12:34;7.15;;;3.30;;
20531;SDS011;10424;52.102;8.084;2023-09-07T09:15:01;6.22;;;3.30;;
20531;SDS011;10424;52.102;8.084;2023-09-07T09:17:29;6.25;;;2.80;;
20531;SDS011;10424;52.102;8.084;2023-09-07T09:19:56;6.68;;;3.20;;
20531;SDS011;10424;52.102;8.084;2023-09-07T09:22:23;5.95;;;2.97;;
20531;SDS011;10424;52.102;8.084;2023-09-07T09:24:51;5.45;;;3.00;;
20531;SDS011;10424;52.102;8.084;2023-09-07T09:27:20;5.95;;;3.30;;
20531;SDS011;10424;52.102;8.084;2023-09-07T09:29:49;9.23;;;3.40;;
20531;SDS011;10424;52.102;8.084;2023-09-07T09:32:17;6.70;;;3.40;;
20531;SDS011;10424;52.102;8.084;2023-09-07T09:34:46;3.67;;;3.20;;
20531;SDS011;10424;52.102;8.084;2023-09-07T09:37:13;6.10;;;3.10;;
20531;SDS011;10424;52.102;8.084;2023-09-07T09:39:41;6.35;;;2.88;;
20531;SDS011;10424;52.102;8.084;2023-09-07T09:42:09;6.90;;;2.90;;
20531;SDS011;10424;52.102;8.084;2023-09-07T09:44:38;6.43;;;3.28;;
20531;SDS011;10424;52.102;8.084;2023-09-07T09:47:06;5.45;;;3.20;;
20531;SDS011;10424;52.102;8.084;2023-09-07T09:49:35;6.25;;;3.10;;
20531;SDS011;10424;52.102;8.084;2023-09-07T09:52:02;3.45;;;3.10;;
20531;SDS011;10424;52.102;8.084;2023-09-07T09:54:31;7.30;;;3.05;;
20531;SDS011;10424;52.102;8.084;2023-09-07T09:57:01;7.53;;;3.20;;
20531;SDS011;10424;52.102;8.084;2023-09-07T09:59:28;6.60;;;3.40;;
20531;SDS011;10424;52.102;8.084;2023-09-07T10:01:57;7.32;;;3.17;;
20531;SDS011;10424;52.102;8.084;2023-09-07T10:04:25;4.88;;;3.28;;
20531;SDS011;10424;52.102;8.084;2023-09-07T10:06:54;12.35;;;3.35;;
20531;SDS011;10424;52.102;8.084;2023-09-07T10:09:22;8.50;;;3.28;;
20531;SDS011;10424;52.102;8.084;2023-09-07T10:11:52;8.38;;;3.20;;
20531;SDS011;10424;52.102;8.084;2023-09-07T10:14:20;8.15;;;3.25;;
20531;SDS011;10424;52.102;8.084;2023-09-07T10:16:49;6.35;;;3.15;;
20531;SDS011;10424;52.102;8.084;2023-09-07T10:19:19;3.47;;;3.00;;
20531;SDS011;10424;52.102;8.084;2023-09-07T10:21:47;6.43;;;3.10;;
20531;SDS011;10424;52.102;8.084;2023-09-07T10:24:24;7.53;;;3.20;;
20531;SDS011;10424;52.102;8.084;2023-09-07T10:26:56;7.28;;;3.15;;
20531;SDS011;10424;52.102;8.084;2023-09-07T10:29:23;9.02;;;3.00;;
20531;SDS011;10424;52.102;8.084;2023-09-07T10:31:52;9.60;;;3.08;;
20531;SDS011;10424;52.102;8.084;2023-09-07T10:34:21;4.38;;;2.80;;
20531;SDS011;10424;52.102;8.084;2023-09-07T10:36:55;4.22;;;2.80;;
20531;SDS011;10424;52.102;8.084;2023-09-07T10:39:23;6.15;;;2.97;;
20531;SDS011;10424;52.102;8.084;2023-09-07T10:41:50;8.70;;;3.00;;
20531;SDS011;10424;52.102;8.084;2023-09-07T10:44:24;5.47;;;3.10;;
20531;SDS011;10424;52.102;8.084;2023-09-07T10:46:52;5.55;;;2.80;;
20531;SDS011;10424;52.102;8.084;2023-09-07T10:49:19;8.02;;;3.03;;
20531;SDS011;10424;52.102;8.084;2023-09-07T10:51:48;10.90;;;3.00;;
20531;SDS011;10424;52.102;8.084;2023-09-07T10:54:16;8.75;;;2.92;;
20531;SDS011;10424;52.102;8.084;2023-09-07T10:56:44;4.35;;;2.97;;
20531;SDS011;10424;52.102;8.084;2023-09-07T10:59:12;10.90;;;2.90;;
20531;SDS011;10424;52.102;8.084;2023-09-07T11:01:40;5.03;;;2.70;;
20531;SDS011;10424;52.102;8.084;2023-09-07T11:04:07;6.82;;;2.60;;
20531;SDS011;10424;52.102;8.084;2023-09-07T11:06:36;5.30;;;2.50;;
20531;SDS011;10424;52.102;8.084;2023-09-07T11:09:05;6.80;;;3.08;;
20531;SDS011;10424;52.102;8.084;2023-09-07T11:11:34;6.70;;;3.10;;
20531;SDS011;10424;52.102;8.084;2023-09-07T11:14:02;6.20;;;3.05;;
20531;SDS011;10424;52.102;8.084;2023-09-07T11:16:29;5.70;;;3.10;;
20531;SDS011;10424;52.102;8.084;2023-09-07T11:18:57;8.77;;;3.38;;
20531;SDS011;10424;52.102;8.084;2023-09-07T11:21:25;11.18;;;2.95;;
20531;SDS011;10424;52.102;8.084;2023-09-07T11:23:52;7.97;;;3.10;;
20531;SDS011;10424;52.102;8.084;2023-09-07T11:26:21;7.50;;;2.92;;
20531;SDS011;10424;52.102;8.084;2023-09-07T11:28:48;4.05;;;2.80;;
20531;SDS011;10424;52.102;8.084;2023-09-07T11:31:18;3.38;;;2.80;;
20531;SDS011;10424;52.102;8.084;2023-09-07T11:33:46;6.38;;;2.63;;
20531;SDS011;10424;52.102;8.084;2023-09-07T11:36:14;5.65;;;3.00;;
20531;SDS011;10424;52.102;8.084;2023-09-07T11:38:42;11.77;;;3.15;;
20531;SDS011;10424;52.102;8.084;2023-09-07T11:41:10;3.67;;;2.80;;
20531;SDS011;10424;52.102;8.084;2023-09-07T11:43:38;5.95;;;2.80;;
20531;SDS011;10424;52.102;8.084;2023-09-07T11:46:07;5.22;;;2.50;;
20531;SDS011;10424;52.102;8.084;2023-09-07T11:48:34;4.45;;;2.70;;
20531;SDS011;10424;52.102;8.084;2023-09-07T11:51:02;8.48;;;2.67;;
20531;SDS011;10424;52.102;8.084;2023-09-07T11:53:29;5.55;;;2.65;;
20531;SDS011;10424;52.102;8.084;2023-09-07T11:55:57;5.55;;;2.90;;
20531;SDS011;10424;52.102;8.084;2023-09-07T11:58:24;13.63;;;2.80;;
20531;SDS011;10424;52.102;8.084;2023-09-07T12:00:53;6.25;;;2.85;;
20531;SDS011;10424;52.102;8.084;2023-09-07T12:03:20;5.10;;;2.85;;
20531;SDS011;10424;52.102;8.084;2023-09-07T12:05:48;5.45;;;2.72;;
20531;SDS011;10424;52.102;8.084;2023-09-07T12:08:15;7.25;;;2.90;;
20531;SDS011;10424;52.102;8.084;2023-09-07T12:10:42;5.00;;;2.75;;
20531;SDS011;10424;52.102;8.084;2023-09-07T12:13:09;10.00;;;2.80;;
20531;SDS011;10424;52.102;8.084;2023-09-07T12:15:37;5.32;;;2.97;;
20531;SDS011;10424;52.102;8.084;2023-09-07T12:18:06;4.35;;;2.80;;
20531;SDS011;10424;52.102;8.084;2023-09-07T12:20:33;6.90;;;3.00;;
20531;SDS011;10424;52.102;8.084;2023-09-07T12:23:00;5.45;;;2.88;;
20531;SDS011;10424;52.102;8.084;2023-09-07T12:25:28;9.30;;;2.90;;
20531;SDS011;10424;52.102;8.084;2023-09-07T12:27:57;6.05;;;2.60;;
20531;SDS011;10424;52.102;8.084;2023-09-07T12:30:24;6.93;;;2.72;;
20531;SDS011;10424;52.102;8.084;2023-09-07T12:32:52;3.97;;;2.90;;
20531;SDS011;10424;52.102;8.084;2023-09-07T12:35:21;11.30;;;2.70;;
20531;SDS011;10424;52.102;8.084;2023-09-07T12:37:48;7.72;;;2.80;;
20531;SDS011;10424;52.102;8.084;2023-09-07T12:40:16;6.10;;;2.70;;
20531;SDS011;10424;52.102;8.084;2023-09-07T12:42:44;11.45;;;3.00;;
20531;SDS011;10424;52.102;8.084;2023-09-07T12:45:11;7.80;;;2.92;;
20531;SDS011;10424;52.102;8.084;2023-09-07T12:47:40;6.35;;;2.53;;
20531;SDS011;10424;52.102;8.084;2023-09-07T12:50:07;8.07;;;2.70;;
20531;SDS011;10424;52.102;8.084;2023-09-07T12:52:36;5.70;;;2.70;;
20531;SDS011;10424;52.102;8.084;2023-09-07T12:55:04;6.65;;;2.65;;
20531;SDS011;10424;52.102;8.084;2023-09-07T12:57:31;7.47;;;2.75;;
20531;SDS011;10424;52.102;8.084;2023-09-07T12:59:59;5.93;;;2.60;;
20531;SDS011;10424;52.102;8.084;2023-09-07T13:02:27;5.97;;;2.50;;
20531;SDS011;10424;52.102;8.084;2023-09-07T13:04:54;5.22;;;2.50;;
20531;SDS011;10424;52.102;8.084;2023-09-07T13:07:22;6.25;;;2.50;;
20531;SDS011;10424;52.102;8.084;2023-09-07T13:09:50;8.65;;;2.60;;
20531;SDS011;10424;52.102;8.084;2023-09-07T13:12:19;9.75;;;3.00;;
20531;SDS011;10424;52.102;8.084;2023-09-07T13:14:47;5.18;;;2.50;;
20531;SDS011;10424;52.102;8.084;2023-09-07T13:17:14;8.70;;;2.50;;
20531;SDS011;10424;52.102;8.084;2023-09-07T13:19:41;5.15;;;2.72;;
20531;SDS011;10424;52.102;8.084;2023-09-07T13:22:09;5.57;;;2.60;;
20531;SDS011;10424;52.102;8.084;2023-09-07T13:24:36;6.32;;;2.50;;
20531;SDS011;10424;52.102;8.084;2023-09-07T13:27:05;4.55;;;2.65;;
20531;SDS011;10424;52.102;8.084;2023-09-07T13:29:35;4.97;;;2.55;;
20531;SDS011;10424;52.102;8.084;2023-09-07T13:32:02;4.85;;;2.45;;
20531;SDS011;10424;52.102;8.084;2023-09-07T13:34:30;4.22;;;2.30;;
20531;SDS011;10424;52.102;8.084;2023-09-07T13:36:57;4.72;;;2.42;;
20531;SDS011;10424;52.102;8.084;2023-09-07T13:39:24;3.25;;;2.53;;
20531;SDS011;10424;52.102;8.084;2023-09-07T13:41:52;10.18;;;2.40;;
20531;SDS011;10424;52.102;8.084;2023-09-07T13:44:19;7.13;;;2.65;;
20531;SDS011;10424;52.102;8.084;2023-09-07T13:46:47;6.88;;;2.40;;
20531;SDS011;10424;52.102;8.084;2023-09-07T13:49:14;7.65;;;2.60;;
20531;SDS011;10424;52.102;8.084;2023-09-07T13:51:42;9.52;;;2.60;;
20531;SDS011;10424;52.102;8.084;2023-09-07T13:54:09;6.43;;;2.50;;
20531;SDS011;10424;52.102;8.084;2023-09-07T13:56:36;7.32;;;2.50;;
20531;SDS011;10424;52.102;8.084;2023-09-07T13:59:05;5.25;;;2.70;;
20531;SDS011;10424;52.102;8.084;2023-09-07T14:01:33;6.18;;;2.70;;
20531;SDS011;10424;52.102;8.084;2023-09-07T14:04:01;3.65;;;2.60;;
20531;SDS011;10424;52.102;8.084;2023-09-07T14:06:28;7.93;;;2.90;;
20531;SDS011;10424;52.102;8.084;2023-09-07T14:08:55;5.05;;;2.63;;
20531;SDS011;10424;52.102;8.084;2023-09-07T14:11:23;6.63;;;2.60;;
20531;SDS011;10424;52.102;8.084;2023-09-07T14:13:50;12.18;;;2.60;;
20531;SDS011;10424;52.102;8.084;2023-09-07T14:16:18;4.40;;;2.80;;
20531;SDS011;10424;52.102;8.084;2023-09-07T14:18:47;6.05;;;2.88;;
20531;SDS011;10424;52.102;8.084;2023-09-07T14:21:15;9.68;;;2.83;;
20531;SDS011;10424;52.102;8.084;2023-09-07T14:23:42;7.43;;;2.92;;
20531;SDS011;10424;52.102;8.084;2023-09-07T14:26:10;12.00;;;3.67;;
20531;SDS011;10424;52.102;8.084;2023-09-07T14:28:37;6.65;;;3.03;;
20531;SDS011;10424;52.102;8.084;2023-09-07T14:31:04;9.25;;;3.33;;
20531;SDS011;10424;52.102;8.084;2023-09-07T14:33:32;11.85;;;3.17;;
20531;SDS011;10424;52.102;8.084;2023-09-07T14:36:05;5.97;;;3.03;;
20531;SDS011;10424;52.102;8.084;2023-09-07T14:38:32;8.85;;;3.08;;
20531;SDS011;10424;52.102;8.084;2023-09-07T14:41:05;4.95;;;2.90;;
20531;SDS011;10424;52.102;8.084;2023-09-07T14:43:33;8.40;;;2.90;;
20531;SDS011;10424;52.102;8.084;2023-09-07T14:46:00;8.07;;;2.70;;
20531;SDS011;10424;52.102;8.084;2023-09-07T14:48:27;5.38;;;2.90;;
20531;SDS011;10424;52.102;8.084;2023-09-07T14:50:55;11.18;;;3.20;;